createdAt,value
2023-03-22T00:00:20.531Z,99667.09
2023-03-22T00:00:59.714Z,99655.09
2023-03-22T00:02:55.797Z,99662.59
2023-03-22T00:03:36.827Z,99666.72
2023-03-22T00:04:11.956Z,99671.34
2023-03-22T00:04:45.447Z,99665.53
2023-03-22T00:05:23.779Z,99658.66
2023-03-22T00:06:01.823Z,99657.59
2023-03-22T00:06:40.057Z,99659.50
2023-03-22T00:07:18.836Z,99661.63
2023-03-22T00:07:58.053Z,99660.56
2023-03-22T00:08:38.083Z,99660.91
2023-03-22T00:09:12.149Z,99655.84
2023-03-22T00:09:47.731Z,99653.69
2023-03-22T00:10:24.194Z,99652.84
2023-03-22T00:10:57.746Z,99656.88
2023-03-22T00:11:45.247Z,99658.56
2023-03-22T00:12:20.856Z,99657.63
2023-03-22T00:12:56.150Z,99660.94
2023-03-22T00:13:30.419Z,99655.25
2023-03-22T00:14:03.685Z,99660.94
2023-03-22T00:14:39.125Z,99654.63
2023-03-22T00:15:19.892Z,99657.97
2023-03-22T00:15:59.884Z,99658.09
2023-03-22T00:16:35.524Z,99652.53
2023-03-22T00:17:14.717Z,99652.88
2023-03-22T00:18:22.295Z,99656.53
2023-03-22T00:18:57.713Z,99652.75
2023-03-22T00:19:34.169Z,99651.44
2023-03-22T00:20:13.800Z,99651.81
2023-03-22T00:20:53.912Z,99651.06
2023-03-22T00:21:36.160Z,99649.53
2023-03-22T00:22:11.741Z,99648.00
2023-03-22T00:22:47.342Z,99650.22
2023-03-22T00:23:24.104Z,99650.59
2023-03-22T00:23:58.985Z,99644.66
2023-03-22T00:24:36.372Z,99640.59
2023-03-22T00:25:12.326Z,99635.75
2023-03-22T00:25:52.253Z,99639.69
2023-03-22T00:26:27.758Z,99636.13
2023-03-22T00:27:02.844Z,99631.94
2023-03-22T00:27:41.307Z,99631.09
2023-03-22T00:28:16.566Z,99637.03
2023-03-22T00:28:54.660Z,99628.63
2023-03-22T00:29:32.543Z,99637.41
2023-03-22T00:30:06.376Z,99631.00
2023-03-22T00:30:41.621Z,99634.94
2023-03-22T00:31:16.764Z,99635.75
2023-03-22T00:31:50.374Z,99643.13
2023-03-22T00:32:28.889Z,99636.81
2023-03-22T00:33:02.398Z,99639.56
2023-03-22T00:33:35.655Z,99640.03
2023-03-22T00:34:10.813Z,99632.31
2023-03-22T00:35:18.574Z,99633.06
2023-03-22T00:35:58.699Z,99632.69
2023-03-22T00:36:33.722Z,99641.94
2023-03-22T00:37:09.604Z,99631.63
2023-03-22T00:37:44.789Z,99629.97
2023-03-22T00:38:32.533Z,99632.44
2023-03-22T00:39:14.449Z,99631.03
2023-03-22T00:39:47.772Z,99632.13
2023-03-22T00:40:26.499Z,99634.00
2023-03-22T00:41:09.950Z,99627.47
2023-03-22T00:41:48.023Z,99624.16
2023-03-22T00:42:21.671Z,99624.28
2023-03-22T00:42:58.114Z,99629.16
2023-03-22T00:43:31.455Z,99626.31
2023-03-22T00:44:10.676Z,99633.66
2023-03-22T00:44:48.006Z,99622.28
2023-03-22T00:45:56.008Z,99630.00
2023-03-22T00:46:33.171Z,99630.34
2023-03-22T00:47:12.376Z,99621.81
2023-03-22T00:47:47.736Z,99623.47
2023-03-22T00:48:23.817Z,99624.06
2023-03-22T00:49:03.753Z,99627.63
2023-03-22T00:49:43.845Z,99628.47
2023-03-22T00:50:18.886Z,99631.41
2023-03-22T00:50:51.801Z,99628.78
2023-03-22T00:51:26.701Z,99628.78
2023-03-22T00:52:01.733Z,99627.72
2023-03-22T00:52:36.781Z,99631.75
2023-03-22T00:53:11.925Z,99626.31
2023-03-22T00:53:50.041Z,99623.81
2023-03-22T00:54:23.308Z,99629.88
2023-03-22T00:55:45.783Z,99620.50
2023-03-22T00:56:54.079Z,99625.38
2023-03-22T00:58:02.724Z,99623.34
2023-03-22T00:59:13.909Z,99614.56
2023-03-22T00:59:46.855Z,99613.75
2023-03-22T01:00:57.861Z,99608.19
2023-03-22T01:01:36.737Z,99606.28
2023-03-22T01:02:18.724Z,99617.31
2023-03-22T01:03:04.873Z,99618.50
2023-03-22T01:03:40.215Z,99619.31
2023-03-22T01:04:18.574Z,99617.66
2023-03-22T01:04:54.189Z,99623.34
2023-03-22T01:05:35.017Z,99621.69
2023-03-22T01:06:13.684Z,99624.16
2023-03-22T01:06:47.341Z,99618.25
2023-03-22T01:07:21.748Z,99619.66
2023-03-22T01:07:57.076Z,99618.03
2023-03-22T01:08:34.633Z,99624.28
2023-03-22T01:09:15.109Z,99616.94
2023-03-22T01:09:51.951Z,99619.19
2023-03-22T01:10:31.242Z,99624.75
2023-03-22T01:11:06.474Z,99620.38
2023-03-22T01:11:44.476Z,99616.34
2023-03-22T01:12:19.459Z,99623.69
2023-03-22T01:13:07.203Z,99616.34
2023-03-22T01:13:42.003Z,99622.38
2023-03-22T01:14:22.925Z,99621.53
2023-03-22T01:15:00.854Z,99614.44
2023-03-22T01:15:34.456Z,99616.09
2023-03-22T01:16:09.591Z,99624.88
2023-03-22T01:16:48.961Z,99618.81
2023-03-22T01:18:02.393Z,99622.84
2023-03-22T01:18:38.024Z,99616.56
2023-03-22T01:19:11.636Z,99615.75
2023-03-22T01:19:50.733Z,99616.56
2023-03-22T01:20:25.617Z,99616.81
2023-03-22T01:20:58.860Z,99622.28
2023-03-22T01:21:40.781Z,99615.50
2023-03-22T01:22:23.054Z,99614.66
2023-03-22T01:22:55.847Z,99615.28
2023-03-22T01:23:31.202Z,99617.75
2023-03-22T01:24:10.765Z,99613.97
2023-03-22T01:24:46.050Z,99625.94
2023-03-22T01:25:25.961Z,99611.00
2023-03-22T01:26:01.735Z,99619.75
2023-03-22T01:26:37.802Z,99611.56
2023-03-22T01:28:37.791Z,99612.41
2023-03-22T01:29:16.602Z,99621.44
2023-03-22T01:29:52.831Z,99615.03
2023-03-22T01:30:31.515Z,99615.88
2023-03-22T01:31:09.664Z,99615.88
2023-03-22T01:32:35.463Z,99609.69
2023-03-22T01:33:11.129Z,99609.94
2023-03-22T01:33:44.490Z,99617.28
2023-03-22T01:34:23.725Z,99613.50
2023-03-22T01:34:58.645Z,99605.53
2023-03-22T01:35:33.292Z,99621.44
2023-03-22T01:36:08.550Z,99617.38
2023-03-22T01:36:43.943Z,99614.28
2023-03-22T01:37:27.811Z,99619.53
2023-03-22T01:38:03.174Z,99613.03
2023-03-22T01:39:07.538Z,99616.91
2023-03-22T01:40:15.623Z,99609.06
2023-03-22T01:40:48.355Z,99615.94
2023-03-22T01:41:23.812Z,99612.38
2023-03-22T01:41:58.587Z,99611.06
2023-03-22T01:42:37.746Z,99612.47
2023-03-22T01:43:12.467Z,99611.19
2023-03-22T01:43:45.973Z,99606.53
2023-03-22T01:44:24.286Z,99604.44
2023-03-22T01:45:15.617Z,99610.50
2023-03-22T01:45:55.400Z,99602.88
2023-03-22T01:46:35.319Z,99606.22
2023-03-22T01:47:17.758Z,99611.69
2023-03-22T01:48:26.531Z,99604.91
2023-03-22T01:49:09.258Z,99612.00
2023-03-22T01:49:44.759Z,99606.81
2023-03-22T01:50:20.662Z,99607.78
2023-03-22T01:51:04.360Z,99601.69
2023-03-22T01:51:47.351Z,99605.88
2023-03-22T01:52:23.492Z,99609.19
2023-03-22T01:52:58.296Z,99606.53
2023-03-22T01:53:37.468Z,99611.53
2023-03-22T01:54:29.513Z,99608.09
2023-03-22T01:55:04.634Z,99610.56
2023-03-22T01:55:41.358Z,99601.88
2023-03-22T01:56:19.443Z,99604.63
2023-03-22T01:56:55.893Z,99601.66
2023-03-22T01:57:29.469Z,99599.72
2023-03-22T01:58:08.274Z,99600.34
2023-03-22T01:58:41.677Z,99603.91
2023-03-22T01:59:20.227Z,99595.94
2023-03-22T01:59:59.812Z,99605.53
2023-03-22T02:00:39.052Z,99599.03
2023-03-22T02:01:13.074Z,99600.44
2023-03-22T02:01:53.555Z,99602.34
2023-03-22T02:02:33.491Z,99601.50
2023-03-22T02:03:54.447Z,99594.50
2023-03-22T02:04:38.447Z,99600.78
2023-03-22T02:05:22.421Z,99595.31
2023-03-22T02:06:04.879Z,99599.13
2023-03-22T02:06:54.444Z,99594.72
2023-03-22T02:07:27.431Z,99594.13
2023-03-22T02:07:59.483Z,99601.28
2023-03-22T02:08:40.924Z,99599.38
2023-03-22T02:09:30.563Z,99599.38
2023-03-22T02:10:05.111Z,99600.44
2023-03-22T02:10:46.025Z,99599.84
2023-03-22T02:11:43.007Z,99593.66
2023-03-22T02:12:56.170Z,99595.06
2023-03-22T02:13:35.463Z,99595.66
2023-03-22T02:14:14.491Z,99598.97
2023-03-22T02:15:12.451Z,99598.13
2023-03-22T02:17:52.045Z,99598.09
2023-03-22T02:18:25.444Z,99601.19
2023-03-22T02:19:16.751Z,99603.91
2023-03-22T02:21:03.499Z,99609.72
2023-03-22T02:22:59.411Z,99606.81
2023-03-22T02:24:06.557Z,99609.88
2023-03-22T02:24:45.698Z,99612.84
2023-03-22T02:25:24.723Z,99608.22
2023-03-22T02:26:44.094Z,99605.63
2023-03-22T02:28:01.225Z,99613.31
2023-03-22T02:29:17.916Z,99614.72
2023-03-22T02:29:57.681Z,99615.94
2023-03-22T02:30:36.046Z,99610.22
2023-03-22T02:31:29.007Z,99611.66
2023-03-22T02:32:48.917Z,99615.19
2023-03-22T02:34:48.601Z,99621.03
2023-03-22T02:35:41.511Z,99614.25
2023-03-22T02:36:45.150Z,99612.34
2023-03-22T02:38:12.639Z,99617.13
2023-03-22T02:40:14.914Z,99613.41
2023-03-22T02:40:54.657Z,99615.09
2023-03-22T02:41:53.817Z,99605.09
2023-03-22T02:43:31.129Z,99612.22
2023-03-22T02:44:19.792Z,99602.72
2023-03-22T02:45:18.841Z,99610.91
2023-03-22T02:46:05.758Z,99609.16
2023-03-22T02:47:23.418Z,99602.03
2023-03-22T02:48:10.375Z,99608.78
2023-03-22T02:50:11.764Z,99609.28
2023-03-22T02:51:19.137Z,99606.22
2023-03-22T02:53:02.647Z,99611.31
2023-03-22T02:54:03.228Z,99612.13
2023-03-22T02:55:10.515Z,99612.44
2023-03-22T02:56:14.632Z,99614.97
2023-03-22T02:56:52.557Z,99614.50
2023-03-22T02:57:37.852Z,99611.91
2023-03-22T02:58:16.689Z,99616.78
2023-03-22T02:58:59.741Z,99615.13
2023-03-22T02:59:47.237Z,99624.97
2023-03-22T03:00:35.898Z,99618.44
2023-03-22T03:01:25.414Z,99614.50
2023-03-22T03:02:11.916Z,99620.34
2023-03-22T03:02:49.657Z,99621.16
2023-03-22T03:03:30.571Z,99624.72
2023-03-22T03:04:17.296Z,99626.03
2023-03-22T03:05:48.799Z,99629.13
2023-03-22T03:06:33.695Z,99624.41
2023-03-22T03:07:11.738Z,99622.25
2023-03-22T03:07:55.223Z,99621.66
2023-03-22T03:08:34.851Z,99629.00
2023-03-22T03:09:18.218Z,99625.66
2023-03-22T03:10:05.652Z,99622.47
2023-03-22T03:10:46.189Z,99623.88
2023-03-22T03:11:28.046Z,99625.81
2023-03-22T03:12:23.683Z,99625.91
2023-03-22T03:13:02.936Z,99624.13
2023-03-22T03:13:40.612Z,99627.41
2023-03-22T03:15:05.705Z,99624.59
2023-03-22T03:15:49.371Z,99625.66
2023-03-22T03:16:27.796Z,99626.75
2023-03-22T03:17:12.262Z,99621.28
2023-03-22T03:17:46.047Z,99621.50
2023-03-22T03:18:54.180Z,99627.31
2023-03-22T03:19:32.764Z,99628.75
2023-03-22T03:21:00.453Z,99625.31
2023-03-22T03:22:03.670Z,99632.88
2023-03-22T03:23:21.247Z,99627.41
2023-03-22T03:24:03.058Z,99626.38
2023-03-22T03:24:42.294Z,99633.72
2023-03-22T03:25:43.484Z,99630.16
2023-03-22T03:26:47.177Z,99626.38
2023-03-22T03:27:37.383Z,99629.09
2023-03-22T03:28:38.278Z,99630.28
2023-03-22T03:30:27.329Z,99636.31
2023-03-22T03:31:06.462Z,99632.28
2023-03-22T03:32:08.039Z,99627.56
2023-03-22T03:32:45.675Z,99635.97
2023-03-22T03:33:28.180Z,99634.06
2023-03-22T03:35:22.577Z,99636.22
2023-03-22T03:36:49.806Z,99634.44
2023-03-22T03:37:39.897Z,99638.81
2023-03-22T03:38:56.595Z,99643.56
2023-03-22T03:39:44.231Z,99635.97
2023-03-22T03:41:00.630Z,99632.75
2023-03-22T03:41:43.003Z,99637.03
2023-03-22T03:42:22.720Z,99630.75
2023-03-22T03:43:07.059Z,99639.44
2023-03-22T03:43:48.617Z,99642.97
2023-03-22T03:44:27.691Z,99639.66
2023-03-22T03:45:08.688Z,99650.94
2023-03-22T03:45:56.239Z,99646.53
2023-03-22T03:46:35.126Z,99644.63
2023-03-22T03:47:14.846Z,99644.06
2023-03-22T03:48:00.460Z,99649.03
2023-03-22T03:49:20.489Z,99642.97
2023-03-22T03:49:59.068Z,99642.16
2023-03-22T03:50:39.047Z,99644.88
2023-03-22T03:51:18.841Z,99641.56
2023-03-22T03:51:57.275Z,99645.94
2023-03-22T03:52:32.625Z,99644.41
2023-03-22T03:54:04.152Z,99642.38
2023-03-22T03:55:24.062Z,99642.16
2023-03-22T03:56:41.066Z,99648.78
2023-03-22T03:57:29.891Z,99639.88
2023-03-22T03:58:11.647Z,99643.78
2023-03-22T03:58:50.268Z,99642.94
2023-03-22T03:59:28.589Z,99640.47
2023-03-22T04:00:09.430Z,99650.91
2023-03-22T04:00:49.645Z,99654.47
2023-03-22T04:01:29.002Z,99642.13
2023-03-22T04:02:08.107Z,99653.28
2023-03-22T04:02:47.194Z,99645.56
2023-03-22T04:03:26.831Z,99639.75
2023-03-22T04:04:46.994Z,99647.13
2023-03-22T04:05:27.316Z,99644.16
2023-03-22T04:06:08.945Z,99647.13
2023-03-22T04:06:47.061Z,99646.88
2023-03-22T04:07:28.479Z,99652.94
2023-03-22T04:08:58.612Z,99647.25
2023-03-22T04:09:51.642Z,99650.53
2023-03-22T04:10:30.857Z,99654.84
2023-03-22T04:11:16.882Z,99654.84
2023-03-22T04:11:54.798Z,99652.69
2023-03-22T04:12:41.990Z,99648.06
2023-03-22T04:13:21.834Z,99646.66
2023-03-22T04:14:01.574Z,99647.13
2023-03-22T04:14:41.882Z,99649.03
2023-03-22T04:16:02.375Z,99656.38
2023-03-22T04:17:19.003Z,99648.19
2023-03-22T04:18:33.649Z,99649.75
2023-03-22T04:19:13.554Z,99654.16
2023-03-22T04:19:53.793Z,99659.34
2023-03-22T04:21:53.290Z,99655.44
2023-03-22T04:23:11.508Z,99660.88
2023-03-22T04:23:51.756Z,99658.75
2023-03-22T04:24:30.041Z,99661.00
2023-03-22T04:25:05.025Z,99658.59
2023-03-22T04:25:50.229Z,99659.44
2023-03-22T04:26:30.374Z,99658.03
2023-03-22T04:28:04.418Z,99657.78
2023-03-22T04:28:52.274Z,99657.78
2023-03-22T04:29:32.391Z,99658.84
2023-03-22T04:30:23.023Z,99663.22
2023-03-22T04:31:06.703Z,99661.91
2023-03-22T04:31:46.391Z,99656.59
2023-03-22T04:32:26.089Z,99664.47
2023-03-22T04:33:07.164Z,99661.94
2023-03-22T04:33:47.042Z,99661.38
2023-03-22T04:34:26.490Z,99659.69
2023-03-22T04:35:05.874Z,99661.59
2023-03-22T04:35:44.848Z,99664.59
2023-03-22T04:36:25.790Z,99667.88
2023-03-22T04:37:43.452Z,99657.44
2023-03-22T04:39:06.276Z,99661.38
2023-03-22T04:39:46.327Z,99661.84
2023-03-22T04:40:35.413Z,99657.72
2023-03-22T04:42:03.871Z,99660.91
2023-03-22T04:42:39.278Z,99650.47
2023-03-22T04:43:19.101Z,99655.94
2023-03-22T04:44:03.486Z,99657.34
2023-03-22T04:44:43.030Z,99663.19
2023-03-22T04:45:59.783Z,99665.66
2023-03-22T04:47:03.897Z,99671.47
2023-03-22T04:48:28.407Z,99659.81
2023-03-22T04:49:45.457Z,99662.34
2023-03-22T04:50:28.274Z,99660.91
2023-03-22T04:51:11.949Z,99661.88
2023-03-22T04:51:52.313Z,99663.75
2023-03-22T04:52:31.837Z,99660.69
2023-03-22T04:53:12.578Z,99654.41
2023-03-22T04:54:31.707Z,99666.13
2023-03-22T04:55:11.062Z,99658.19
2023-03-22T04:55:50.461Z,99664.13
2023-03-22T04:56:29.021Z,99671.47
2023-03-22T04:57:08.502Z,99670.06
2023-03-22T04:57:48.012Z,99670.16
2023-03-22T04:58:30.589Z,99669.47
2023-03-22T04:59:13.802Z,99676.56
2023-03-22T04:59:53.043Z,99674.19
2023-03-22T05:00:42.458Z,99675.03
2023-03-22T05:01:23.170Z,99669.84
2023-03-22T05:02:03.386Z,99677.28
2023-03-22T05:02:42.439Z,99677.28
2023-03-22T05:03:25.803Z,99673.16
2023-03-22T05:04:06.824Z,99672.66
2023-03-22T05:04:46.125Z,99677.03
2023-03-22T05:05:24.315Z,99668.28
2023-03-22T05:06:06.762Z,99668.75
2023-03-22T05:06:47.448Z,99671.84
2023-03-22T05:07:27.516Z,99671.09
2023-03-22T05:09:55.741Z,99682.97
2023-03-22T05:10:39.228Z,99685.00
2023-03-22T05:11:57.108Z,99687.94
2023-03-22T05:12:35.124Z,99682.75
2023-03-22T05:13:14.666Z,99685.94
2023-03-22T05:13:53.779Z,99690.22
2023-03-22T05:14:33.092Z,99692.47
2023-03-22T05:15:11.847Z,99686.53
2023-03-22T05:15:51.984Z,99689.50
2023-03-22T05:16:31.096Z,99681.06
2023-03-22T05:17:10.557Z,99690.94
2023-03-22T05:17:53.344Z,99686.53
2023-03-22T05:18:33.618Z,99691.66
2023-03-22T05:19:14.173Z,99692.13
2023-03-22T05:19:53.105Z,99695.44
2023-03-22T05:20:33.123Z,99693.19
2023-03-22T05:21:22.162Z,99690.94
2023-03-22T05:22:02.173Z,99701.84
2023-03-22T05:22:50.895Z,99699.13
2023-03-22T05:23:30.662Z,99698.19
2023-03-22T05:24:12.058Z,99701.03
2023-03-22T05:25:29.011Z,99704.81
2023-03-22T05:26:09.117Z,99704.94
2023-03-22T05:27:31.591Z,99702.56
2023-03-22T05:28:11.054Z,99701.38
2023-03-22T05:28:51.335Z,99701.38
2023-03-22T05:30:18.988Z,99707.91
2023-03-22T05:30:58.006Z,99710.16
2023-03-22T05:32:15.671Z,99703.75
2023-03-22T05:33:04.800Z,99700.66
2023-03-22T05:33:46.718Z,99703.53
2023-03-22T05:34:50.798Z,99702.56
2023-03-22T05:35:29.787Z,99699.84
2023-03-22T05:36:08.869Z,99698.88
2023-03-22T05:36:48.321Z,99700.78
2023-03-22T05:38:05.897Z,99695.44
2023-03-22T05:38:46.668Z,99701.28
2023-03-22T05:40:57.909Z,99698.28
2023-03-22T05:41:45.496Z,99702.44
2023-03-22T05:44:22.949Z,99706.59
2023-03-22T05:45:02.600Z,99697.91
2023-03-22T05:46:06.693Z,99699.13
2023-03-22T05:46:47.067Z,99698.66
2023-03-22T05:47:27.081Z,99702.47
2023-03-22T05:48:02.463Z,99699.94
2023-03-22T05:48:49.974Z,99702.91
2023-03-22T05:49:29.212Z,99706.03
2023-03-22T05:50:10.137Z,99704.22
2023-03-22T05:50:49.080Z,99702.69
2023-03-22T05:51:28.185Z,99703.28
2023-03-22T05:52:07.531Z,99700.56
2023-03-22T05:53:24.384Z,99711.59
2023-03-22T05:54:07.760Z,99700.56
2023-03-22T05:54:46.851Z,99711.09
2023-03-22T05:55:26.730Z,99708.75
2023-03-22T05:56:44.338Z,99706.97
2023-03-22T05:57:23.688Z,99707.06
2023-03-22T05:58:05.210Z,99707.06
2023-03-22T05:58:45.002Z,99714.78
2023-03-22T05:59:24.696Z,99711.00
2023-03-22T06:00:44.026Z,99715.97
2023-03-22T06:02:01.104Z,99707.41
2023-03-22T06:02:41.342Z,99706.94
2023-03-22T06:03:57.872Z,99705.13
2023-03-22T06:04:37.154Z,99710.22
2023-03-22T06:05:17.574Z,99699.66
2023-03-22T06:05:57.186Z,99701.66
2023-03-22T06:06:39.848Z,99697.88
2023-03-22T06:07:19.885Z,99701.31
2023-03-22T06:07:59.382Z,99700.00
2023-03-22T06:09:18.195Z,99705.19
2023-03-22T06:10:23.023Z,99706.88
2023-03-22T06:11:40.352Z,99703.53
2023-03-22T06:12:22.656Z,99706.09
2023-03-22T06:13:02.362Z,99707.00
2023-03-22T06:14:19.051Z,99704.72
2023-03-22T06:15:39.451Z,99708.50
2023-03-22T06:16:56.355Z,99712.88
2023-03-22T06:17:36.745Z,99714.41
2023-03-22T06:18:17.382Z,99717.44
2023-03-22T06:18:56.116Z,99711.47
2023-03-22T06:19:59.586Z,99715.66
2023-03-22T06:21:56.848Z,99717.81
2023-03-22T06:23:16.184Z,99720.47
2023-03-22T06:23:55.319Z,99719.16
2023-03-22T06:24:34.135Z,99717.84
2023-03-22T06:25:13.363Z,99714.84
2023-03-22T06:25:52.847Z,99719.34
2023-03-22T06:26:32.112Z,99714.19
2023-03-22T06:27:49.991Z,99712.63
2023-03-22T06:28:30.005Z,99713.56
2023-03-22T06:29:09.311Z,99720.69
2023-03-22T06:29:51.032Z,99716.06
2023-03-22T06:30:30.206Z,99719.63
2023-03-22T06:31:11.023Z,99715.56
2023-03-22T06:31:50.134Z,99713.47
2023-03-22T06:32:28.408Z,99719.03
2023-03-22T06:33:08.659Z,99712.72
2023-03-22T06:33:50.953Z,99715.03
2023-03-22T06:34:37.955Z,99704.75
2023-03-22T06:35:17.360Z,99708.06
2023-03-22T06:36:05.881Z,99714.38
2023-03-22T06:36:44.698Z,99705.56
2023-03-22T06:37:20.269Z,99707.22
2023-03-22T06:37:51.947Z,99708.91
2023-03-22T06:38:30.857Z,99706.16
2023-03-22T06:39:10.129Z,99718.00
2023-03-22T06:40:46.956Z,99714.56
2023-03-22T06:41:25.559Z,99712.47
2023-03-22T06:42:31.063Z,99714.44
2023-03-22T06:43:49.874Z,99710.13
2023-03-22T06:44:44.870Z,99706.06
2023-03-22T06:45:24.249Z,99715.72
2023-03-22T06:46:41.966Z,99718.63
2023-03-22T06:47:21.140Z,99716.56
2023-03-22T06:47:59.993Z,99714.09
2023-03-22T06:48:39.105Z,99721.72
2023-03-22T06:49:19.348Z,99720.16
2023-03-22T06:49:59.252Z,99726.28
2023-03-22T06:50:41.323Z,99720.78
2023-03-22T06:52:00.745Z,99716.50
2023-03-22T06:52:40.451Z,99715.69
2023-03-22T06:53:28.788Z,99721.75
2023-03-22T06:54:46.468Z,99724.34
2023-03-22T06:55:34.974Z,99725.81
2023-03-22T06:56:24.378Z,99728.03
2023-03-22T06:57:04.400Z,99723.72
2023-03-22T06:57:53.188Z,99724.03
2023-03-22T06:58:33.307Z,99718.94
2023-03-22T06:59:15.267Z,99729.31
2023-03-22T07:00:07.346Z,99726.22
2023-03-22T07:00:50.745Z,99722.06
2023-03-22T07:01:27.902Z,99721.56
2023-03-22T07:02:06.132Z,99725.69
2023-03-22T07:02:46.561Z,99724.97
2023-03-22T07:03:27.181Z,99730.16
2023-03-22T07:04:06.832Z,99731.81
2023-03-22T07:05:11.555Z,99726.25
2023-03-22T07:06:34.161Z,99735.88
2023-03-22T07:07:14.321Z,99735.69
2023-03-22T07:07:56.992Z,99729.13
2023-03-22T07:08:33.944Z,99739.56
2023-03-22T07:09:13.706Z,99737.97
2023-03-22T07:10:07.953Z,99736.69
2023-03-22T07:10:50.144Z,99740.25
2023-03-22T07:11:26.655Z,99745.75
2023-03-22T07:12:07.024Z,99743.00
2023-03-22T07:12:46.285Z,99737.19
2023-03-22T07:13:26.716Z,99737.78
2023-03-22T07:14:09.477Z,99741.69
2023-03-22T07:14:49.757Z,99741.81
2023-03-22T07:15:30.968Z,99739.91
2023-03-22T07:16:11.798Z,99739.13
2023-03-22T07:17:00.336Z,99737.97
2023-03-22T07:17:38.231Z,99738.72
2023-03-22T07:18:16.782Z,99733.81
2023-03-22T07:18:57.405Z,99740.97
2023-03-22T07:19:37.005Z,99736.34
2023-03-22T07:20:14.800Z,99739.38
2023-03-22T07:20:54.156Z,99735.66
2023-03-22T07:21:33.606Z,99742.28
2023-03-22T07:22:22.503Z,99736.22
2023-03-22T07:23:05.466Z,99734.03
2023-03-22T07:23:47.475Z,99740.56
2023-03-22T07:24:26.719Z,99745.84
2023-03-22T07:25:05.038Z,99743.50
2023-03-22T07:25:46.900Z,99737.78
2023-03-22T07:26:26.532Z,99738.25
2023-03-22T07:27:06.428Z,99737.41
2023-03-22T07:27:45.063Z,99736.09
2023-03-22T07:28:24.452Z,99740.00
2023-03-22T07:29:14.183Z,99737.06
2023-03-22T07:29:53.278Z,99738.72
2023-03-22T07:30:29.289Z,99736.84
2023-03-22T07:32:47.415Z,99738.09
2023-03-22T07:34:07.116Z,99745.22
2023-03-22T07:34:44.695Z,99740.84
2023-03-22T07:35:27.810Z,99744.50
2023-03-22T07:37:03.117Z,99745.69
2023-03-22T07:37:55.427Z,99744.31
2023-03-22T07:38:35.421Z,99748.44
2023-03-22T07:39:19.465Z,99749.31
2023-03-22T07:40:55.076Z,99747.19
2023-03-22T07:42:21.422Z,99751.34
2023-03-22T07:42:54.846Z,99754.94
2023-03-22T07:43:47.333Z,99752.22
2023-03-22T07:44:40.129Z,99739.53
2023-03-22T07:45:26.771Z,99747.56
2023-03-22T07:46:09.382Z,99749.53
2023-03-22T07:48:22.650Z,99741.63
2023-03-22T07:49:41.596Z,99741.63
2023-03-22T07:51:00.818Z,99741.91
2023-03-22T07:51:41.050Z,99743.53
2023-03-22T07:52:20.558Z,99743.78
2023-03-22T07:53:00.505Z,99744.66
2023-03-22T07:53:42.965Z,99742.19
2023-03-22T07:54:34.405Z,99746.63
2023-03-22T07:55:13.050Z,99743.13
2023-03-22T07:56:19.084Z,99743.66
2023-03-22T07:56:54.222Z,99742.56
2023-03-22T07:57:30.423Z,99745.88
2023-03-22T07:58:12.397Z,99741.50
2023-03-22T07:58:51.971Z,99740.13
2023-03-22T07:59:27.972Z,99736.84
2023-03-22T08:00:07.167Z,99739.31
2023-03-22T08:00:43.913Z,99742.66
2023-03-22T08:01:36.034Z,99742.09
2023-03-22T08:02:39.678Z,99736.91
2023-03-22T08:03:30.504Z,99734.69
2023-03-22T08:06:32.819Z,99735.59
2023-03-22T08:07:12.086Z,99744.13
2023-03-22T08:07:54.696Z,99740.78
2023-03-22T08:08:34.264Z,99741.38
2023-03-22T08:09:22.588Z,99743.34
2023-03-22T08:10:02.507Z,99745.81
2023-03-22T08:10:51.595Z,99749.66
2023-03-22T08:11:31.521Z,99752.41
2023-03-22T08:12:36.098Z,99747.19
2023-03-22T08:13:17.136Z,99749.13
2023-03-22T08:13:54.622Z,99737.56
2023-03-22T08:14:37.888Z,99741.97
2023-03-22T08:15:57.201Z,99744.44
2023-03-22T08:16:47.083Z,99741.13
2023-03-22T08:18:02.439Z,99735.88
2023-03-22T08:18:41.872Z,99737.84
2023-03-22T08:20:48.458Z,99734.78
2023-03-22T08:21:27.817Z,99738.38
2023-03-22T08:23:43.228Z,99735.84
2023-03-22T08:25:22.356Z,99732.03
2023-03-22T08:26:42.945Z,99738.31
2023-03-22T08:28:03.583Z,99739.41
2023-03-22T08:28:44.579Z,99735.81
2023-03-22T08:29:24.634Z,99741.88
2023-03-22T08:30:06.156Z,99739.41
2023-03-22T08:30:41.821Z,99740.81
2023-03-22T08:31:20.302Z,99738.06
2023-03-22T08:32:13.856Z,99738.03
2023-03-22T08:33:17.808Z,99734.72
2023-03-22T08:34:40.864Z,99730.03
2023-03-22T08:35:21.265Z,99738.25
2023-03-22T08:36:12.608Z,99737.94
2023-03-22T08:36:55.013Z,99736.91
2023-03-22T08:37:39.755Z,99740.25
2023-03-22T08:39:44.634Z,99740.19
2023-03-22T08:40:24.015Z,99734.41
2023-03-22T08:41:04.618Z,99740.19
2023-03-22T08:42:16.299Z,99744.09
2023-03-22T08:42:56.199Z,99741.28
2023-03-22T08:43:39.025Z,99740.50
2023-03-22T08:44:52.609Z,99742.94
2023-03-22T08:45:36.384Z,99737.59
2023-03-22T08:46:49.249Z,99742.03
2023-03-22T08:47:36.412Z,99746.69
2023-03-22T08:48:15.176Z,99741.44
2023-03-22T08:49:04.729Z,99738.91
2023-03-22T08:50:37.939Z,99745.06
2023-03-22T08:51:11.007Z,99746.69
2023-03-22T08:51:44.445Z,99746.19
2023-03-22T08:53:43.263Z,99746.25
2023-03-22T08:54:15.469Z,99746.25
2023-03-22T08:54:53.508Z,99747.56
2023-03-22T08:55:35.593Z,99750.31
2023-03-22T08:56:07.963Z,99745.59
2023-03-22T08:56:42.899Z,99752.81
2023-03-22T08:57:16.781Z,99748.41
2023-03-22T08:59:04.112Z,99749.56
2023-03-22T09:00:48.941Z,99745.09
2023-03-22T09:01:22.389Z,99750.91
2023-03-22T09:02:04.736Z,99753.41
2023-03-22T09:02:43.578Z,99752.03
2023-03-22T09:03:26.272Z,99742.94
2023-03-22T09:07:01.165Z,99756.16
2023-03-22T09:08:20.017Z,99760.53
2023-03-22T09:09:38.059Z,99760.00
2023-03-22T09:10:52.372Z,99757.81
2023-03-22T09:12:16.835Z,99765.31
2023-03-22T09:12:50.108Z,99767.22
2023-03-22T09:14:50.809Z,99768.75
2023-03-22T09:15:29.688Z,99759.97
2023-03-22T09:17:39.657Z,99768.75
2023-03-22T09:18:19.669Z,99760.72
2023-03-22T09:20:59.470Z,99762.91
2023-03-22T09:21:39.020Z,99760.97
2023-03-22T09:22:18.926Z,99758.69
2023-03-22T09:23:22.141Z,99758.38
2023-03-22T09:24:03.942Z,99757.22
2023-03-22T09:24:43.803Z,99765.22
2023-03-22T09:25:22.748Z,99759.38
2023-03-22T09:26:07.157Z,99763.22
2023-03-22T09:26:41.104Z,99765.44
2023-03-22T09:27:15.768Z,99762.13
2023-03-22T09:27:53.715Z,99762.16
2023-03-22T09:28:34.817Z,99767.69
2023-03-22T09:30:01.625Z,99765.03
2023-03-22T09:30:40.980Z,99761.13
2023-03-22T09:31:24.079Z,99767.75
2023-03-22T09:31:56.421Z,99758.38
2023-03-22T09:32:29.708Z,99763.06
2023-03-22T09:33:09.943Z,99762.53
2023-03-22T09:33:57.766Z,99765.47
2023-03-22T09:34:44.714Z,99768.81
2023-03-22T09:36:17.107Z,99762.91
2023-03-22T09:37:21.700Z,99766.97
2023-03-22T09:38:36.369Z,99766.81
2023-03-22T09:39:25.954Z,99768.00
2023-03-22T09:40:04.481Z,99758.72
2023-03-22T09:41:08.101Z,99759.22
2023-03-22T09:42:03.083Z,99767.97
2023-03-22T09:44:05.706Z,99763.94
2023-03-22T09:44:39.836Z,99759.81
2023-03-22T09:45:39.723Z,99766.75
2023-03-22T09:46:13.514Z,99773.56
2023-03-22T09:46:52.734Z,99762.00
2023-03-22T09:47:44.699Z,99763.31
2023-03-22T09:48:38.239Z,99756.53
2023-03-22T09:50:05.838Z,99769.00
2023-03-22T09:51:56.373Z,99761.84
2023-03-22T09:52:36.348Z,99763.69